createdAt,value
2022-11-30T00:01:18.401Z,4.72
2022-11-30T00:03:45.144Z,4.68
2022-11-30T00:06:14.383Z,4.47
2022-11-30T00:08:41.464Z,4.67
2022-11-30T00:11:10.317Z,4.69
2022-11-30T00:13:37.079Z,4.68
2022-11-30T00:16:04.330Z,4.69
2022-11-30T00:18:31.409Z,4.67
2022-11-30T00:21:02.047Z,4.66
2022-11-30T00:23:33.077Z,4.62
2022-11-30T00:26:05.231Z,4.62
2022-11-30T00:28:40.435Z,4.58
2022-11-30T00:31:10.846Z,4.62
2022-11-30T00:33:38.264Z,4.62
2022-11-30T00:36:07.982Z,4.60
2022-11-30T00:38:34.691Z,4.48
2022-11-30T00:41:02.137Z,4.50
2022-11-30T00:43:29.128Z,4.50
2022-11-30T00:45:57.684Z,4.43
2022-11-30T00:48:24.988Z,4.52
2022-11-30T00:50:51.978Z,4.54
2022-11-30T00:53:19.766Z,4.47
2022-11-30T00:55:47.215Z,4.58
2022-11-30T00:58:14.536Z,4.57
2022-11-30T01:00:41.392Z,4.58
2022-11-30T01:03:08.357Z,4.61
2022-11-30T01:05:35.850Z,4.49
2022-11-30T01:08:03.818Z,4.61
2022-11-30T01:10:30.779Z,4.60
2022-11-30T01:12:57.445Z,4.57
2022-11-30T01:15:24.235Z,4.57
2022-11-30T01:17:50.961Z,4.58
2022-11-30T01:20:18.133Z,4.05
2022-11-30T01:22:44.786Z,4.21
2022-11-30T01:25:11.498Z,4.43
2022-11-30T01:27:38.244Z,4.52
2022-11-30T01:30:05.818Z,4.49
2022-11-30T01:32:32.487Z,4.48
2022-11-30T01:34:59.280Z,4.53
2022-11-30T01:37:25.929Z,4.55
2022-11-30T01:39:52.615Z,4.56
2022-11-30T01:42:20.424Z,4.55
2022-11-30T01:44:54.591Z,4.55
2022-11-30T01:47:46.575Z,4.58
2022-11-30T01:50:20.991Z,4.58
2022-11-30T01:52:51.893Z,4.54
2022-11-30T01:55:50.786Z,4.51
2022-11-30T01:58:24.811Z,4.42
2022-11-30T02:00:51.487Z,4.37
2022-11-30T02:03:43.672Z,4.24
2022-11-30T02:06:10.638Z,4.32
2022-11-30T02:08:37.845Z,4.38
2022-11-30T02:11:09.860Z,4.41
2022-11-30T02:13:52.655Z,4.43
2022-11-30T02:16:28.520Z,4.42
2022-11-30T02:19:13.463Z,4.38
2022-11-30T02:22:24.235Z,4.25
2022-11-30T02:25:39.744Z,4.23
2022-11-30T02:28:18.540Z,4.24
2022-11-30T02:30:50.446Z,4.26
2022-11-30T02:33:21.491Z,4.29
2022-11-30T02:35:55.189Z,4.29
2022-11-30T02:38:24.474Z,4.30
2022-11-30T02:40:51.289Z,4.12
2022-11-30T02:43:21.350Z,4.34
2022-11-30T02:46:00.876Z,4.24
2022-11-30T02:48:38.824Z,4.32
2022-11-30T02:51:09.010Z,4.39
2022-11-30T02:53:36.481Z,4.39
2022-11-30T02:56:04.351Z,4.37
2022-11-30T02:58:31.609Z,4.36
2022-11-30T03:00:58.197Z,4.35
2022-11-30T03:03:24.896Z,4.35
2022-11-30T03:05:51.741Z,4.36
2022-11-30T03:08:18.402Z,4.36
2022-11-30T03:10:45.007Z,4.33
2022-11-30T03:13:11.778Z,4.32
2022-11-30T03:15:38.385Z,4.31
2022-11-30T03:18:05.503Z,4.26
2022-11-30T03:20:32.335Z,4.24
2022-11-30T03:23:02.563Z,4.22
2022-11-30T03:25:29.646Z,4.23
2022-11-30T03:27:56.323Z,4.22
2022-11-30T03:30:22.937Z,4.23
2022-11-30T03:32:50.924Z,4.21
2022-11-30T03:35:17.621Z,4.21
2022-11-30T03:37:44.379Z,4.22
2022-11-30T03:40:11.442Z,4.22
2022-11-30T03:42:38.359Z,4.21
2022-11-30T03:45:05.464Z,4.19
2022-11-30T03:47:32.226Z,4.16
2022-11-30T03:49:58.955Z,4.16
2022-11-30T03:52:25.633Z,4.15
2022-11-30T03:54:52.228Z,4.14
2022-11-30T03:57:18.894Z,3.85
2022-11-30T03:59:45.474Z,4.12
2022-11-30T04:02:12.179Z,4.12
2022-11-30T04:04:38.862Z,4.12
2022-11-30T04:07:05.647Z,4.13
2022-11-30T04:09:32.218Z,4.13
2022-11-30T04:11:59.156Z,4.14
2022-11-30T04:14:25.750Z,4.16
2022-11-30T04:16:52.455Z,4.18
2022-11-30T04:19:19.072Z,4.18
2022-11-30T04:21:45.870Z,4.19
2022-11-30T04:24:12.464Z,4.18
2022-11-30T04:26:39.172Z,4.19
2022-11-30T04:29:05.750Z,4.20
2022-11-30T04:31:32.477Z,4.20
2022-11-30T04:33:59.261Z,4.22
2022-11-30T04:36:26.004Z,4.21
2022-11-30T04:38:52.561Z,4.12
2022-11-30T04:41:19.319Z,4.10
2022-11-30T04:43:45.962Z,3.99
2022-11-30T04:46:12.878Z,4.07
2022-11-30T04:48:39.732Z,4.09
2022-11-30T04:51:08.423Z,4.02
2022-11-30T04:53:36.743Z,4.03
2022-11-30T04:56:08.361Z,4.08
2022-11-30T04:58:35.297Z,3.83
2022-11-30T05:01:02.016Z,4.06
2022-11-30T05:03:28.914Z,4.09
2022-11-30T05:05:55.511Z,4.12
2022-11-30T05:08:22.231Z,4.11
2022-11-30T05:10:53.543Z,4.12
2022-11-30T05:13:22.000Z,4.09
2022-11-30T05:15:48.645Z,4.02
2022-11-30T05:18:15.389Z,4.09
2022-11-30T05:20:42.074Z,4.10
2022-11-30T05:23:08.777Z,4.10
2022-11-30T05:25:35.493Z,4.09
2022-11-30T05:28:02.201Z,4.09
2022-11-30T05:30:28.782Z,4.10
2022-11-30T05:32:55.429Z,4.15
2022-11-30T05:35:22.030Z,4.16
2022-11-30T05:37:48.667Z,4.12
2022-11-30T05:40:15.249Z,4.09
2022-11-30T05:42:41.825Z,4.08
2022-11-30T05:45:08.951Z,4.09
2022-11-30T05:47:35.725Z,4.11
2022-11-30T05:50:02.309Z,4.12
2022-11-30T05:52:28.957Z,4.13
2022-11-30T05:54:55.768Z,4.17
2022-11-30T05:57:22.468Z,4.16
2022-11-30T05:59:49.045Z,4.19
2022-11-30T06:02:15.860Z,4.21
2022-11-30T06:04:42.539Z,4.20
2022-11-30T06:07:09.177Z,4.20
2022-11-30T06:09:35.805Z,4.18
2022-11-30T06:12:02.422Z,4.18
2022-11-30T06:14:29.018Z,4.18
2022-11-30T06:16:55.772Z,4.18
2022-11-30T06:19:22.368Z,4.18
2022-11-30T06:21:49.142Z,4.18
2022-11-30T06:24:15.758Z,4.21
2022-11-30T06:26:42.454Z,4.21
2022-11-30T06:29:09.776Z,4.23
2022-11-30T06:31:36.626Z,4.23
2022-11-30T06:34:03.264Z,4.23
2022-11-30T06:36:35.508Z,4.23
2022-11-30T06:39:03.782Z,4.25
2022-11-30T06:41:30.439Z,4.26
2022-11-30T06:43:57.097Z,4.28
2022-11-30T06:46:23.703Z,4.29
2022-11-30T06:48:50.583Z,4.31
2022-11-30T06:51:17.482Z,4.31
2022-11-30T06:53:45.674Z,4.30
2022-11-30T06:56:12.581Z,4.28
2022-11-30T06:58:40.001Z,4.21
2022-11-30T07:01:13.130Z,4.28
2022-11-30T07:03:41.183Z,4.21
2022-11-30T07:06:10.104Z,4.28
2022-11-30T07:08:37.020Z,4.28
2022-11-30T07:11:03.966Z,4.30
2022-11-30T07:13:30.719Z,4.33
2022-11-30T07:15:57.572Z,4.35
2022-11-30T07:18:30.139Z,4.31
2022-11-30T07:21:02.915Z,4.39
2022-11-30T07:23:30.305Z,4.35
2022-11-30T07:26:01.452Z,4.36
2022-11-30T07:28:28.205Z,4.29
2022-11-30T07:30:54.827Z,4.10
2022-11-30T07:33:21.506Z,4.26
2022-11-30T07:35:48.124Z,4.34
2022-11-30T07:38:14.913Z,4.40
2022-11-30T07:40:41.483Z,4.45
2022-11-30T07:43:08.298Z,4.48
2022-11-30T07:45:34.903Z,4.51
2022-11-30T07:48:01.571Z,4.39
2022-11-30T07:50:28.230Z,4.45
2022-11-30T07:52:54.861Z,4.22
2022-11-30T07:55:21.421Z,4.44
2022-11-30T07:57:48.221Z,4.04
2022-11-30T08:00:15.440Z,4.42
2022-11-30T08:02:42.074Z,4.46
2022-11-30T08:05:09.259Z,4.50
2022-11-30T08:07:35.971Z,4.52
2022-11-30T08:10:02.695Z,4.61
2022-11-30T08:12:29.417Z,4.61
2022-11-30T08:15:19.513Z,4.64
2022-11-30T08:17:43.002Z,4.46
2022-11-30T08:20:11.525Z,4.59
2022-11-30T08:22:38.218Z,4.50
2022-11-30T08:25:05.194Z,4.49
2022-11-30T08:27:31.985Z,4.54
2022-11-30T08:29:58.595Z,4.58
2022-11-30T08:32:25.337Z,4.59
2022-11-30T08:34:51.928Z,4.64
2022-11-30T08:37:18.548Z,4.73
2022-11-30T08:39:45.157Z,4.79
2022-11-30T08:42:11.879Z,4.75
2022-11-30T08:44:38.447Z,4.82
2022-11-30T08:47:05.268Z,4.75
2022-11-30T08:49:31.897Z,4.81
2022-11-30T08:54:47.057Z,4.90
2022-11-30T08:57:19.145Z,4.90
2022-11-30T08:59:46.570Z,4.96
2022-11-30T09:02:15.262Z,4.93
2022-11-30T09:04:42.097Z,4.95
2022-11-30T09:07:08.962Z,4.92
2022-11-30T09:09:36.326Z,4.93
2022-11-30T09:12:03.008Z,4.94
2022-11-30T09:14:29.827Z,5.06
2022-11-30T09:16:56.695Z,5.09
2022-11-30T09:19:23.445Z,5.11
2022-11-30T09:21:52.135Z,4.91
2022-11-30T09:24:19.841Z,4.85
2022-11-30T09:26:46.451Z,4.83
2022-11-30T09:29:13.098Z,4.84
2022-11-30T09:31:39.767Z,4.90
2022-11-30T09:34:06.404Z,4.94
2022-11-30T09:36:33.000Z,4.93
2022-11-30T09:38:59.931Z,4.96
2022-11-30T09:41:35.434Z,4.75
2022-11-30T09:44:13.960Z,4.94
2022-11-30T09:46:58.883Z,5.06
2022-11-30T09:49:34.477Z,4.89
2022-11-30T09:52:06.041Z,4.87
2022-11-30T09:54:42.146Z,4.85
2022-11-30T09:57:33.848Z,5.04
2022-11-30T10:00:05.146Z,5.05
2022-11-30T10:02:39.488Z,4.88
2022-11-30T10:05:16.652Z,4.91
2022-11-30T10:08:02.029Z,4.81
2022-11-30T10:10:41.373Z,4.87
2022-11-30T10:13:54.446Z,4.77
2022-11-30T10:16:39.570Z,4.49
2022-11-30T10:19:44.604Z,4.09
2022-11-30T10:22:31.336Z,4.01
2022-11-30T10:25:07.321Z,4.38
2022-11-30T10:27:50.108Z,4.43
2022-11-30T10:30:20.205Z,4.28
2022-11-30T10:32:51.681Z,4.39
2022-11-30T10:35:33.259Z,4.16
2022-11-30T10:38:05.372Z,4.31
2022-11-30T10:40:47.725Z,4.48
2022-11-30T10:43:17.878Z,4.29
2022-11-30T10:45:50.086Z,4.24
2022-11-30T10:48:38.358Z,4.30
2022-11-30T10:51:05.343Z,4.17
2022-11-30T10:53:33.822Z,4.20
2022-11-30T10:56:09.739Z,4.17
2022-11-30T10:58:40.706Z,4.16
2022-11-30T11:01:29.065Z,4.20
2022-11-30T11:04:23.251Z,4.27
2022-11-30T11:06:55.023Z,4.27
2022-11-30T11:09:33.639Z,4.36
2022-11-30T11:12:14.173Z,4.16
2022-11-30T11:14:41.031Z,4.27
2022-11-30T11:17:19.684Z,4.35
2022-11-30T11:19:48.688Z,4.31
2022-11-30T11:22:15.402Z,4.38
2022-11-30T11:24:42.471Z,4.41
2022-11-30T11:27:28.628Z,4.46
2022-11-30T11:30:06.464Z,4.58
2022-11-30T11:32:33.567Z,4.46
2022-11-30T11:35:00.728Z,4.50
2022-11-30T11:37:30.536Z,4.50
2022-11-30T11:40:01.804Z,4.72
2022-11-30T11:42:34.997Z,4.98
2022-11-30T11:45:03.629Z,4.99
2022-11-30T11:47:39.144Z,4.98
2022-11-30T11:50:57.852Z,4.93
2022-11-30T11:53:14.723Z,5.04
2022-11-30T11:55:42.541Z,4.86
2022-11-30T11:58:19.327Z,4.73
2022-11-30T12:00:48.369Z,4.59
2022-11-30T12:03:28.705Z,4.44
2022-11-30T12:06:04.998Z,4.71
2022-11-30T12:08:34.786Z,4.86
2022-11-30T12:11:16.366Z,4.89
2022-11-30T12:13:45.137Z,4.69
2022-11-30T12:16:11.755Z,4.73
2022-11-30T12:18:51.879Z,4.80
2022-11-30T12:21:39.387Z,4.73
2022-11-30T12:24:24.602Z,4.70
2022-11-30T12:27:04.043Z,4.76
2022-11-30T12:29:46.363Z,4.86
2022-11-30T12:32:13.142Z,4.88
2022-11-30T12:35:07.581Z,4.69
2022-11-30T12:37:47.511Z,4.54
2022-11-30T12:40:20.467Z,4.56
2022-11-30T12:42:55.949Z,4.49
2022-11-30T12:45:40.895Z,4.58
2022-11-30T12:48:23.904Z,4.60
2022-11-30T12:51:29.512Z,4.53
2022-11-30T12:54:29.438Z,4.44
2022-11-30T12:57:08.457Z,4.41
2022-11-30T12:59:44.953Z,4.24
2022-11-30T13:02:17.729Z,4.37
2022-11-30T13:04:53.377Z,4.38
2022-11-30T13:07:43.729Z,4.37
2022-11-30T13:10:29.813Z,4.36
2022-11-30T13:12:57.439Z,4.31
2022-11-30T13:15:28.036Z,4.10
2022-11-30T13:17:55.534Z,3.98
2022-11-30T13:23:39.380Z,3.97
2022-11-30T13:26:30.622Z,3.93
2022-11-30T13:29:16.103Z,3.77
2022-11-30T13:31:55.907Z,3.89
2022-11-30T13:34:29.852Z,3.96
2022-11-30T13:37:27.064Z,4.02
2022-11-30T13:39:57.496Z,3.63
2022-11-30T13:42:34.280Z,3.69
2022-11-30T13:45:13.424Z,3.94
2022-11-30T13:47:43.774Z,3.90
2022-11-30T13:50:31.411Z,4.08
2022-11-30T13:52:58.129Z,4.11
2022-11-30T13:55:34.105Z,4.01
2022-11-30T13:58:00.716Z,3.87
2022-11-30T14:00:30.114Z,3.92
2022-11-30T14:03:16.013Z,4.03
2022-11-30T14:05:43.917Z,4.08
2022-11-30T14:08:15.770Z,4.00
2022-11-30T14:10:47.895Z,4.01
2022-11-30T14:13:17.699Z,4.05
2022-11-30T14:15:44.244Z,3.94
2022-11-30T14:18:10.887Z,3.85
2022-11-30T14:20:38.169Z,3.83
2022-11-30T14:23:07.800Z,3.84
2022-11-30T14:25:35.572Z,3.87
2022-11-30T14:28:05.005Z,3.90
2022-11-30T14:30:33.312Z,3.73
2022-11-30T14:33:06.508Z,3.61
2022-11-30T14:35:33.605Z,3.62
2022-11-30T14:38:01.195Z,3.58
2022-11-30T14:40:29.829Z,3.58
2022-11-30T14:42:59.129Z,3.39
2022-11-30T14:45:31.817Z,3.62
2022-11-30T14:48:12.250Z,3.59
2022-11-30T14:50:46.271Z,3.46
2022-11-30T14:53:38.961Z,3.53
2022-11-30T14:56:40.528Z,3.56
2022-11-30T14:59:42.170Z,3.74
2022-11-30T15:02:19.863Z,3.85
2022-11-30T15:04:49.138Z,3.83
2022-11-30T15:07:16.290Z,3.83
2022-11-30T15:09:46.387Z,3.93
2022-11-30T15:12:22.447Z,3.78
2022-11-30T15:15:19.660Z,3.73
2022-11-30T15:17:53.914Z,3.69
2022-11-30T15:20:30.375Z,3.65
2022-11-30T15:22:58.679Z,3.68
2022-11-30T15:25:31.762Z,3.57
2022-11-30T15:27:59.853Z,2.82
2022-11-30T15:30:27.609Z,3.71
2022-11-30T15:32:56.861Z,3.64
2022-11-30T15:35:34.292Z,3.71
2022-11-30T15:38:10.614Z,3.72
2022-11-30T15:40:37.390Z,3.54
2022-11-30T15:43:04.226Z,3.71
2022-11-30T15:45:33.605Z,3.57
2022-11-30T15:48:01.342Z,3.56
2022-11-30T15:50:27.887Z,3.32
2022-11-30T15:52:57.045Z,3.49
2022-11-30T15:56:06.943Z,3.62
2022-11-30T15:58:41.403Z,3.81
2022-11-30T16:01:22.110Z,3.56
2022-11-30T16:04:06.734Z,3.82
2022-11-30T16:06:45.170Z,3.73
2022-11-30T16:09:30.631Z,3.48
2022-11-30T16:11:58.996Z,3.50
2022-11-30T16:14:25.700Z,3.47
2022-11-30T16:16:52.843Z,3.53
2022-11-30T16:19:20.032Z,3.46
2022-11-30T16:21:48.244Z,3.32
2022-11-30T16:24:15.812Z,3.37
2022-11-30T16:26:51.708Z,3.27
2022-11-30T16:29:19.548Z,3.22
2022-11-30T16:31:46.169Z,3.12
2022-11-30T16:34:12.933Z,2.97
2022-11-30T16:36:39.608Z,2.96
2022-11-30T16:39:06.341Z,2.95
2022-11-30T16:41:34.774Z,2.78
2022-11-30T16:44:01.524Z,2.87
2022-11-30T16:46:29.703Z,2.91
2022-11-30T16:48:56.403Z,2.87
2022-11-30T16:51:31.670Z,2.91
2022-11-30T16:53:58.612Z,2.91
2022-11-30T16:56:26.224Z,2.76
2022-11-30T16:58:53.240Z,2.87
2022-11-30T17:01:41.320Z,2.93
2022-11-30T17:04:15.481Z,2.78
2022-11-30T17:06:42.269Z,2.83
2022-11-30T17:09:13.091Z,2.98
2022-11-30T17:11:40.941Z,3.16
2022-11-30T17:14:07.798Z,3.14
2022-11-30T17:16:34.522Z,3.25
2022-11-30T17:19:01.249Z,3.23
2022-11-30T17:21:31.152Z,3.13
2022-11-30T17:23:58.214Z,3.00
2022-11-30T17:26:25.318Z,3.04
2022-11-30T17:28:51.943Z,3.04
2022-11-30T17:31:19.171Z,2.84
2022-11-30T17:33:48.304Z,3.08
2022-11-30T17:36:16.749Z,2.94
2022-11-30T17:38:43.356Z,3.03
2022-11-30T17:41:18.528Z,2.79
2022-11-30T17:43:46.954Z,2.78
2022-11-30T17:46:15.494Z,2.81
2022-11-30T17:48:43.142Z,2.84
2022-11-30T17:51:11.722Z,2.88
2022-11-30T17:53:39.909Z,2.96
2022-11-30T17:56:09.297Z,3.06
2022-11-30T17:58:41.560Z,3.10
2022-11-30T18:01:16.594Z,2.93
2022-11-30T18:03:43.790Z,3.05
2022-11-30T18:06:10.522Z,2.95
2022-11-30T18:08:37.338Z,3.07
2022-11-30T18:11:18.810Z,3.06
2022-11-30T18:13:46.115Z,3.24
2022-11-30T18:16:21.846Z,3.27
2022-11-30T18:18:49.158Z,2.93
2022-11-30T18:21:18.428Z,2.95
2022-11-30T18:23:45.852Z,2.81
2022-11-30T18:26:14.903Z,2.72
2022-11-30T18:28:42.035Z,2.40
2022-11-30T18:31:08.853Z,2.49
2022-11-30T18:33:37.315Z,2.55
2022-11-30T18:36:05.239Z,2.54
2022-11-30T18:38:37.180Z,2.68
2022-11-30T18:41:04.785Z,2.74
2022-11-30T18:43:31.359Z,2.58
2022-11-30T18:46:05.426Z,2.63
2022-11-30T18:48:32.389Z,2.73
2022-11-30T18:50:59.083Z,2.71
2022-11-30T18:53:25.892Z,2.60
2022-11-30T18:55:52.477Z,2.60
2022-11-30T18:58:19.126Z,2.65
2022-11-30T19:00:45.759Z,2.74
2022-11-30T19:03:12.423Z,2.54
2022-11-30T19:05:39.102Z,2.37
2022-11-30T19:08:08.522Z,2.72
2022-11-30T19:10:36.622Z,2.80
2022-11-30T19:13:04.329Z,2.82
2022-11-30T19:15:37.273Z,2.84
2022-11-30T19:18:04.176Z,2.87
2022-11-30T19:20:30.784Z,2.68
2022-11-30T19:22:57.596Z,2.41
2022-11-30T19:25:24.206Z,2.15
2022-11-30T19:27:50.962Z,2.08
2022-11-30T19:30:17.803Z,2.11
2022-11-30T19:32:44.474Z,2.28
2022-11-30T19:35:11.040Z,2.31
2022-11-30T19:37:37.858Z,2.38
2022-11-30T19:40:05.743Z,2.01
2022-11-30T19:42:32.433Z,2.10
2022-11-30T19:44:59.051Z,1.88
2022-11-30T19:47:25.763Z,1.95
2022-11-30T19:49:52.334Z,2.17
2022-11-30T19:52:19.222Z,2.21
2022-11-30T19:54:46.486Z,2.29
2022-11-30T19:57:13.606Z,2.32
2022-11-30T19:59:40.434Z,2.43
2022-11-30T20:02:09.527Z,2.14
2022-11-30T20:04:36.137Z,2.30
2022-11-30T20:07:02.979Z,2.55
2022-11-30T20:09:29.564Z,2.72
2022-11-30T20:11:56.408Z,2.68
2022-11-30T20:14:23.035Z,2.65
2022-11-30T20:16:49.702Z,2.66
2022-11-30T20:19:16.289Z,2.64
2022-11-30T20:21:42.971Z,2.56
2022-11-30T20:24:11.608Z,2.46
2022-11-30T20:26:40.831Z,2.44
2022-11-30T20:29:11.594Z,2.26
2022-11-30T20:31:38.218Z,2.30
2022-11-30T20:34:05.094Z,2.20
2022-11-30T20:36:31.924Z,2.18
2022-11-30T20:38:58.910Z,2.08
2022-11-30T20:41:26.316Z,2.14
2022-11-30T20:43:53.322Z,1.99
2022-11-30T20:46:25.869Z,2.09
2022-11-30T20:48:53.378Z,2.09
2022-11-30T20:51:30.839Z,2.17
2022-11-30T20:54:03.920Z,2.13
2022-11-30T20:56:30.941Z,2.09
2022-11-30T20:59:01.348Z,2.01
2022-11-30T21:01:28.490Z,1.96
2022-11-30T21:03:55.141Z,2.06
2022-11-30T21:06:21.937Z,1.88
2022-11-30T21:08:48.509Z,1.84
2022-11-30T21:11:18.211Z,1.97
2022-11-30T21:13:46.768Z,1.93
2022-11-30T21:16:16.536Z,1.82
2022-11-30T21:18:45.502Z,1.89
2022-11-30T21:21:16.366Z,1.93
2022-11-30T21:23:43.914Z,1.77
2022-11-30T21:26:16.769Z,1.84
2022-11-30T21:28:44.560Z,1.80
2022-11-30T21:31:11.780Z,1.79
2022-11-30T21:33:38.596Z,1.66
2022-11-30T21:36:06.949Z,1.76
2022-11-30T21:38:34.223Z,1.94
2022-11-30T21:41:02.210Z,1.83
2022-11-30T21:43:30.301Z,2.00
2022-11-30T21:46:06.114Z,2.09
2022-11-30T21:48:35.378Z,2.04
2022-11-30T21:51:10.789Z,1.84
2022-11-30T21:53:42.083Z,1.74
2022-11-30T21:56:11.967Z,1.71
2022-11-30T21:58:40.188Z,1.79
2022-11-30T22:01:07.803Z,1.76
2022-11-30T22:03:34.555Z,1.78
2022-11-30T22:06:02.140Z,1.74
2022-11-30T22:08:29.776Z,1.67
2022-11-30T22:11:20.422Z,1.80
2022-11-30T22:13:52.095Z,1.73
2022-11-30T22:16:19.828Z,1.83
2022-11-30T22:18:47.194Z,1.68
2022-11-30T22:21:15.185Z,1.57
2022-11-30T22:23:44.019Z,1.70
2022-11-30T22:26:22.259Z,1.69
2022-11-30T22:28:52.229Z,1.70
2022-11-30T22:31:21.103Z,1.70
2022-11-30T22:33:48.413Z,1.62
2022-11-30T22:36:17.776Z,1.50
2022-11-30T22:38:45.188Z,1.43
2022-11-30T22:41:14.565Z,1.27
2022-11-30T22:43:41.967Z,1.39
2022-11-30T22:46:11.005Z,1.33
2022-11-30T22:48:37.998Z,1.45
2022-11-30T22:51:10.233Z,1.39
2022-11-30T22:53:37.827Z,1.46
2022-11-30T22:56:07.674Z,1.21
2022-11-30T22:58:34.704Z,1.50
2022-11-30T23:01:39.020Z,1.55
2022-11-30T23:04:07.309Z,1.69
2022-11-30T23:06:34.535Z,1.59
2022-11-30T23:09:01.722Z,1.36
2022-11-30T23:11:29.230Z,1.29
2022-11-30T23:13:56.019Z,1.29
2022-11-30T23:16:23.445Z,1.29
2022-11-30T23:18:56.119Z,1.35
2022-11-30T23:21:25.592Z,1.37
2022-11-30T23:23:52.466Z,1.39
2022-11-30T23:26:21.978Z,1.43
2022-11-30T23:28:50.529Z,1.51
2022-11-30T23:31:34.535Z,1.64
2022-11-30T23:34:07.538Z,1.70
2022-11-30T23:36:35.218Z,1.61
2022-11-30T23:39:08.773Z,1.59
2022-11-30T23:41:35.486Z,1.56
2022-11-30T23:44:02.108Z,1.52
2022-11-30T23:46:29.349Z,1.27
2022-11-30T23:48:56.273Z,1.41
2022-11-30T23:51:23.945Z,0.97
2022-11-30T23:53:50.776Z,1.27
2022-11-30T23:56:21.020Z,1.29
2022-11-30T23:58:47.894Z,1.29
